Terminal Aerodrome Forecast
Issued by NWS

Home | Current Version | Previous Version | Text Only | Print | Product List | Glossary On
Versions: 1 2 3 4 5 6 7 8 9 10 11 12 13 14 15 16 17 18 19 20 21 22 23 24 25 26 27 28 29 30 31 32 33 34 35 36 37 38 39
000
FTUS43 KLOT 260942 CCA
TAFORD
TAF COR
KORD 260942Z 2609/2712 20010KT P6SM BKN012
     FM261600 17012KT 6SM -SHRA SCT015 OVC030
      TEMPO 2617/2620 3SM TSRA OVC020CB
     FM262300 22014G16KT P6SM SCT020 BKN035
     FM270700 23010KT P6SM SCT040=

USA.gov is the U.S. government's official web portal to all federal, state and local government web resources and services.